sensor_id;sensor_type;location;lat;lon;timestamp;P1;durP1;ratioP1;P2;durP2;ratioP2
35150;SDS011;55720;51.972;4.624;2023-11-21T00:01:45;29.00;;;9.65;;
35150;SDS011;55720;51.972;4.624;2023-11-21T00:04:10;26.10;;;8.50;;
35150;SDS011;55720;51.972;4.624;2023-11-21T00:06:36;24.00;;;8.85;;
35150;SDS011;55720;51.972;4.624;2023-11-21T00:09:01;23.65;;;8.65;;
35150;SDS011;55720;51.972;4.624;2023-11-21T00:11:27;24.17;;;9.00;;
35150;SDS011;55720;51.972;4.624;2023-11-21T00:13:52;19.47;;;8.40;;
35150;SDS011;55720;51.972;4.624;2023-11-21T00:16:17;23.40;;;9.03;;
35150;SDS011;55720;51.972;4.624;2023-11-21T00:18:43;19.17;;;8.45;;
35150;SDS011;55720;51.972;4.624;2023-11-21T00:21:08;19.63;;;8.50;;
35150;SDS011;55720;51.972;4.624;2023-11-21T00:23:34;22.17;;;8.82;;
35150;SDS011;55720;51.972;4.624;2023-11-21T00:25:59;24.98;;;7.68;;
35150;SDS011;55720;51.972;4.624;2023-11-21T00:28:25;18.30;;;7.88;;
35150;SDS011;55720;51.972;4.624;2023-11-21T00:30:52;18.58;;;8.18;;
35150;SDS011;55720;51.972;4.624;2023-11-21T00:33:17;23.13;;;8.30;;
35150;SDS011;55720;51.972;4.624;2023-11-21T00:35:42;22.20;;;8.80;;
35150;SDS011;55720;51.972;4.624;2023-11-21T00:38:07;20.50;;;8.27;;
35150;SDS011;55720;51.972;4.624;2023-11-21T00:40:33;22.10;;;7.75;;
35150;SDS011;55720;51.972;4.624;2023-11-21T00:42:58;21.47;;;8.57;;
35150;SDS011;55720;51.972;4.624;2023-11-21T00:45:24;22.15;;;8.68;;
35150;SDS011;55720;51.972;4.624;2023-11-21T00:47:49;28.25;;;8.60;;
35150;SDS011;55720;51.972;4.624;2023-11-21T00:50:15;22.13;;;8.40;;
35150;SDS011;55720;51.972;4.624;2023-11-21T00:52:40;24.85;;;9.15;;
35150;SDS011;55720;51.972;4.624;2023-11-21T00:55:06;31.73;;;10.00;;
35150;SDS011;55720;51.972;4.624;2023-11-21T00:57:32;25.65;;;8.65;;
35150;SDS011;55720;51.972;4.624;2023-11-21T00:59:57;22.13;;;9.02;;
35150;SDS011;55720;51.972;4.624;2023-11-21T01:02:23;23.00;;;8.02;;
35150;SDS011;55720;51.972;4.624;2023-11-21T01:04:48;24.77;;;8.45;;
35150;SDS011;55720;51.972;4.624;2023-11-21T01:07:13;25.57;;;8.40;;
35150;SDS011;55720;51.972;4.624;2023-11-21T01:09:38;23.85;;;8.90;;
35150;SDS011;55720;51.972;4.624;2023-11-21T01:12:04;31.03;;;8.50;;
35150;SDS011;55720;51.972;4.624;2023-11-21T01:14:29;20.25;;;8.75;;
35150;SDS011;55720;51.972;4.624;2023-11-21T01:16:54;24.10;;;8.50;;
35150;SDS011;55720;51.972;4.624;2023-11-21T01:19:19;23.95;;;8.75;;
35150;SDS011;55720;51.972;4.624;2023-11-21T01:21:44;25.73;;;9.10;;
35150;SDS011;55720;51.972;4.624;2023-11-21T01:24:10;28.47;;;8.53;;
35150;SDS011;55720;51.972;4.624;2023-11-21T01:26:35;28.73;;;9.67;;
35150;SDS011;55720;51.972;4.624;2023-11-21T01:29:00;28.45;;;9.32;;
35150;SDS011;55720;51.972;4.624;2023-11-21T01:31:25;23.80;;;8.80;;
35150;SDS011;55720;51.972;4.624;2023-11-21T01:33:54;29.45;;;9.10;;
35150;SDS011;55720;51.972;4.624;2023-11-21T01:36:20;26.98;;;9.55;;
35150;SDS011;55720;51.972;4.624;2023-11-21T01:38:46;25.38;;;9.38;;
35150;SDS011;55720;51.972;4.624;2023-11-21T01:41:12;26.33;;;9.55;;
35150;SDS011;55720;51.972;4.624;2023-11-21T01:43:38;25.58;;;8.82;;
35150;SDS011;55720;51.972;4.624;2023-11-21T01:46:03;25.75;;;8.50;;
35150;SDS011;55720;51.972;4.624;2023-11-21T01:48:29;27.58;;;9.95;;
35150;SDS011;55720;51.972;4.624;2023-11-21T01:50:54;23.30;;;8.77;;
35150;SDS011;55720;51.972;4.624;2023-11-21T01:53:20;23.23;;;8.55;;
35150;SDS011;55720;51.972;4.624;2023-11-21T01:55:45;22.00;;;8.90;;
35150;SDS011;55720;51.972;4.624;2023-11-21T01:58:11;28.42;;;9.18;;
35150;SDS011;55720;51.972;4.624;2023-11-21T02:00:37;23.85;;;8.32;;
35150;SDS011;55720;51.972;4.624;2023-11-21T02:03:03;28.10;;;8.27;;
35150;SDS011;55720;51.972;4.624;2023-11-21T02:05:29;24.10;;;8.82;;
35150;SDS011;55720;51.972;4.624;2023-11-21T02:07:54;25.42;;;9.38;;
35150;SDS011;55720;51.972;4.624;2023-11-21T02:10:19;21.35;;;8.98;;
35150;SDS011;55720;51.972;4.624;2023-11-21T02:12:48;24.75;;;8.02;;
35150;SDS011;55720;51.972;4.624;2023-11-21T02:15:15;29.20;;;8.25;;
35150;SDS011;55720;51.972;4.624;2023-11-21T02:17:43;28.35;;;8.43;;
35150;SDS011;55720;51.972;4.624;2023-11-21T02:20:10;19.88;;;8.30;;
35150;SDS011;55720;51.972;4.624;2023-11-21T02:22:40;22.00;;;8.18;;
35150;SDS011;55720;51.972;4.624;2023-11-21T02:25:05;25.55;;;9.63;;
35150;SDS011;55720;51.972;4.624;2023-11-21T02:27:32;19.70;;;8.30;;
35150;SDS011;55720;51.972;4.624;2023-11-21T02:29:58;25.30;;;9.13;;
35150;SDS011;55720;51.972;4.624;2023-11-21T02:32:23;28.88;;;8.93;;
35150;SDS011;55720;51.972;4.624;2023-11-21T02:34:51;25.38;;;8.82;;
35150;SDS011;55720;51.972;4.624;2023-11-21T02:37:16;25.77;;;8.70;;
35150;SDS011;55720;51.972;4.624;2023-11-21T02:39:41;24.47;;;8.57;;
35150;SDS011;55720;51.972;4.624;2023-11-21T02:42:06;24.10;;;9.10;;
35150;SDS011;55720;51.972;4.624;2023-11-21T02:44:32;20.65;;;8.30;;
35150;SDS011;55720;51.972;4.624;2023-11-21T02:46:57;22.20;;;8.13;;
35150;SDS011;55720;51.972;4.624;2023-11-21T02:49:22;27.63;;;8.90;;
35150;SDS011;55720;51.972;4.624;2023-11-21T02:51:48;21.50;;;8.75;;
35150;SDS011;55720;51.972;4.624;2023-11-21T02:54:13;25.63;;;8.65;;
35150;SDS011;55720;51.972;4.624;2023-11-21T02:56:38;19.63;;;7.80;;
35150;SDS011;55720;51.972;4.624;2023-11-21T02:59:05;30.65;;;8.65;;
35150;SDS011;55720;51.972;4.624;2023-11-21T03:01:30;19.83;;;8.75;;
35150;SDS011;55720;51.972;4.624;2023-11-21T03:03:56;18.67;;;9.05;;
35150;SDS011;55720;51.972;4.624;2023-11-21T03:06:21;19.08;;;7.80;;
35150;SDS011;55720;51.972;4.624;2023-11-21T03:08:47;30.13;;;8.65;;
35150;SDS011;55720;51.972;4.624;2023-11-21T03:11:12;22.50;;;7.88;;
35150;SDS011;55720;51.972;4.624;2023-11-21T03:13:40;22.85;;;8.15;;
35150;SDS011;55720;51.972;4.624;2023-11-21T03:16:09;21.63;;;8.48;;
35150;SDS011;55720;51.972;4.624;2023-11-21T03:18:35;21.90;;;8.35;;
35150;SDS011;55720;51.972;4.624;2023-11-21T03:21:01;23.25;;;7.80;;
35150;SDS011;55720;51.972;4.624;2023-11-21T03:23:26;18.80;;;7.67;;
35150;SDS011;55720;51.972;4.624;2023-11-21T03:25:51;23.23;;;8.20;;
35150;SDS011;55720;51.972;4.624;2023-11-21T03:28:16;24.33;;;8.77;;
35150;SDS011;55720;51.972;4.624;2023-11-21T03:30:42;23.00;;;8.20;;
35150;SDS011;55720;51.972;4.624;2023-11-21T03:33:07;20.60;;;7.43;;
35150;SDS011;55720;51.972;4.624;2023-11-21T03:35:32;26.17;;;8.82;;
35150;SDS011;55720;51.972;4.624;2023-11-21T03:37:58;18.08;;;8.07;;
35150;SDS011;55720;51.972;4.624;2023-11-21T03:40:23;25.40;;;8.68;;
35150;SDS011;55720;51.972;4.624;2023-11-21T03:42:48;26.90;;;8.50;;
35150;SDS011;55720;51.972;4.624;2023-11-21T03:45:13;24.13;;;8.30;;
35150;SDS011;55720;51.972;4.624;2023-11-21T03:47:40;17.20;;;7.80;;
35150;SDS011;55720;51.972;4.624;2023-11-21T03:50:05;26.40;;;7.97;;
35150;SDS011;55720;51.972;4.624;2023-11-21T03:52:31;25.13;;;8.18;;
35150;SDS011;55720;51.972;4.624;2023-11-21T03:54:56;19.03;;;8.00;;
35150;SDS011;55720;51.972;4.624;2023-11-21T03:57:21;25.08;;;8.18;;
35150;SDS011;55720;51.972;4.624;2023-11-21T03:59:46;24.87;;;7.90;;
35150;SDS011;55720;51.972;4.624;2023-11-21T04:02:12;18.52;;;7.57;;
35150;SDS011;55720;51.972;4.624;2023-11-21T04:04:37;20.75;;;7.82;;
35150;SDS011;55720;51.972;4.624;2023-11-21T04:07:02;29.27;;;7.83;;
35150;SDS011;55720;51.972;4.624;2023-11-21T04:09:28;23.75;;;8.27;;
35150;SDS011;55720;51.972;4.624;2023-11-21T04:11:53;27.40;;;8.13;;
35150;SDS011;55720;51.972;4.624;2023-11-21T04:14:18;28.23;;;8.15;;
35150;SDS011;55720;51.972;4.624;2023-11-21T04:16:44;20.70;;;7.55;;
35150;SDS011;55720;51.972;4.624;2023-11-21T04:19:09;22.35;;;8.02;;
35150;SDS011;55720;51.972;4.624;2023-11-21T04:21:35;27.02;;;7.70;;
35150;SDS011;55720;51.972;4.624;2023-11-21T04:24:00;20.83;;;7.20;;
35150;SDS011;55720;51.972;4.624;2023-11-21T04:26:26;22.52;;;7.25;;
35150;SDS011;55720;51.972;4.624;2023-11-21T04:28:51;22.13;;;7.50;;
35150;SDS011;55720;51.972;4.624;2023-11-21T04:31:16;21.87;;;8.00;;
35150;SDS011;55720;51.972;4.624;2023-11-21T04:33:41;21.55;;;7.03;;
35150;SDS011;55720;51.972;4.624;2023-11-21T04:36:07;18.93;;;7.77;;
35150;SDS011;55720;51.972;4.624;2023-11-21T04:38:32;17.75;;;7.10;;
35150;SDS011;55720;51.972;4.624;2023-11-21T04:40:58;19.10;;;6.95;;
35150;SDS011;55720;51.972;4.624;2023-11-21T04:43:23;19.45;;;7.13;;
35150;SDS011;55720;51.972;4.624;2023-11-21T04:45:48;20.30;;;6.95;;
35150;SDS011;55720;51.972;4.624;2023-11-21T04:48:14;19.95;;;6.45;;
35150;SDS011;55720;51.972;4.624;2023-11-21T04:50:39;22.85;;;7.63;;
35150;SDS011;55720;51.972;4.624;2023-11-21T04:53:04;20.05;;;7.60;;
35150;SDS011;55720;51.972;4.624;2023-11-21T04:55:30;14.60;;;6.80;;
35150;SDS011;55720;51.972;4.624;2023-11-21T04:57:55;23.15;;;6.95;;
35150;SDS011;55720;51.972;4.624;2023-11-21T05:00:20;22.60;;;7.93;;
35150;SDS011;55720;51.972;4.624;2023-11-21T05:02:46;18.77;;;7.57;;
35150;SDS011;55720;51.972;4.624;2023-11-21T05:05:11;20.25;;;7.05;;
35150;SDS011;55720;51.972;4.624;2023-11-21T05:07:37;21.13;;;8.45;;
35150;SDS011;55720;51.972;4.624;2023-11-21T05:10:03;27.33;;;8.65;;
35150;SDS011;55720;51.972;4.624;2023-11-21T05:12:30;27.85;;;8.57;;
35150;SDS011;55720;51.972;4.624;2023-11-21T05:14:58;23.30;;;8.43;;
35150;SDS011;55720;51.972;4.624;2023-11-21T05:17:23;23.83;;;8.50;;
35150;SDS011;55720;51.972;4.624;2023-11-21T05:19:48;27.47;;;9.03;;
35150;SDS011;55720;51.972;4.624;2023-11-21T05:22:14;22.63;;;7.93;;
35150;SDS011;55720;51.972;4.624;2023-11-21T05:24:39;25.25;;;8.63;;
35150;SDS011;55720;51.972;4.624;2023-11-21T05:27:04;21.13;;;8.25;;
35150;SDS011;55720;51.972;4.624;2023-11-21T05:29:29;23.65;;;8.48;;
35150;SDS011;55720;51.972;4.624;2023-11-21T05:31:55;26.07;;;7.77;;
35150;SDS011;55720;51.972;4.624;2023-11-21T05:34:20;27.67;;;8.52;;
35150;SDS011;55720;51.972;4.624;2023-11-21T05:36:48;23.38;;;8.77;;
35150;SDS011;55720;51.972;4.624;2023-11-21T05:39:14;21.33;;;7.73;;
35150;SDS011;55720;51.972;4.624;2023-11-21T05:41:39;18.88;;;7.80;;
35150;SDS011;55720;51.972;4.624;2023-11-21T05:44:04;19.05;;;7.13;;
35150;SDS011;55720;51.972;4.624;2023-11-21T05:46:30;15.00;;;7.00;;
35150;SDS011;55720;51.972;4.624;2023-11-21T05:48:55;17.75;;;7.25;;
35150;SDS011;55720;51.972;4.624;2023-11-21T05:51:21;17.02;;;7.30;;
35150;SDS011;55720;51.972;4.624;2023-11-21T05:53:47;19.10;;;7.20;;
35150;SDS011;55720;51.972;4.624;2023-11-21T05:56:12;16.70;;;7.30;;
35150;SDS011;55720;51.972;4.624;2023-11-21T05:58:38;15.55;;;6.57;;
35150;SDS011;55720;51.972;4.624;2023-11-21T06:01:05;18.70;;;6.85;;
35150;SDS011;55720;51.972;4.624;2023-11-21T06:03:32;15.65;;;6.82;;
35150;SDS011;55720;51.972;4.624;2023-11-21T06:05:57;15.48;;;6.95;;
35150;SDS011;55720;51.972;4.624;2023-11-21T06:08:23;16.67;;;6.70;;
35150;SDS011;55720;51.972;4.624;2023-11-21T06:10:48;12.83;;;6.50;;
35150;SDS011;55720;51.972;4.624;2023-11-21T06:13:14;18.60;;;5.85;;
35150;SDS011;55720;51.972;4.624;2023-11-21T06:15:39;19.52;;;6.93;;
35150;SDS011;55720;51.972;4.624;2023-11-21T06:18:04;16.17;;;6.60;;
35150;SDS011;55720;51.972;4.624;2023-11-21T06:20:34;18.65;;;7.10;;
35150;SDS011;55720;51.972;4.624;2023-11-21T06:23:02;15.10;;;6.55;;
35150;SDS011;55720;51.972;4.624;2023-11-21T06:25:28;13.35;;;6.72;;
35150;SDS011;55720;51.972;4.624;2023-11-21T06:27:53;11.70;;;6.33;;
35150;SDS011;55720;51.972;4.624;2023-11-21T06:30:19;13.15;;;6.07;;
35150;SDS011;55720;51.972;4.624;2023-11-21T06:32:44;16.83;;;6.35;;
35150;SDS011;55720;51.972;4.624;2023-11-21T06:35:10;13.40;;;5.80;;
35150;SDS011;55720;51.972;4.624;2023-11-21T06:37:36;14.27;;;6.18;;
35150;SDS011;55720;51.972;4.624;2023-11-21T06:40:01;12.20;;;5.87;;
35150;SDS011;55720;51.972;4.624;2023-11-21T06:42:29;17.38;;;6.10;;
35150;SDS011;55720;51.972;4.624;2023-11-21T06:44:54;15.48;;;6.03;;
35150;SDS011;55720;51.972;4.624;2023-11-21T06:47:22;12.60;;;5.10;;
35150;SDS011;55720;51.972;4.624;2023-11-21T06:49:47;13.52;;;5.65;;
35150;SDS011;55720;51.972;4.624;2023-11-21T06:52:15;12.90;;;5.45;;
35150;SDS011;55720;51.972;4.624;2023-11-21T06:54:40;11.10;;;5.97;;
35150;SDS011;55720;51.972;4.624;2023-11-21T06:57:05;13.30;;;5.70;;
35150;SDS011;55720;51.972;4.624;2023-11-21T06:59:31;10.37;;;5.53;;
35150;SDS011;55720;51.972;4.624;2023-11-21T07:01:56;9.88;;;5.88;;
35150;SDS011;55720;51.972;4.624;2023-11-21T07:04:22;10.10;;;5.45;;
35150;SDS011;55720;51.972;4.624;2023-11-21T07:06:47;14.40;;;6.05;;
35150;SDS011;55720;51.972;4.624;2023-11-21T07:09:12;14.50;;;7.30;;
35150;SDS011;55720;51.972;4.624;2023-11-21T07:11:38;10.63;;;5.93;;
35150;SDS011;55720;51.972;4.624;2023-11-21T07:14:03;14.90;;;5.85;;
35150;SDS011;55720;51.972;4.624;2023-11-21T07:16:35;18.27;;;6.40;;
35150;SDS011;55720;51.972;4.624;2023-11-21T07:19:03;11.57;;;5.57;;
35150;SDS011;55720;51.972;4.624;2023-11-21T07:21:31;12.95;;;5.28;;
35150;SDS011;55720;51.972;4.624;2023-11-21T07:23:56;10.50;;;4.88;;
35150;SDS011;55720;51.972;4.624;2023-11-21T07:26:21;12.52;;;4.95;;
35150;SDS011;55720;51.972;4.624;2023-11-21T07:28:47;26.95;;;6.05;;
35150;SDS011;55720;51.972;4.624;2023-11-21T07:31:12;12.98;;;5.43;;
35150;SDS011;55720;51.972;4.624;2023-11-21T07:33:38;19.87;;;5.47;;
35150;SDS011;55720;51.972;4.624;2023-11-21T07:36:03;10.83;;;5.13;;
35150;SDS011;55720;51.972;4.624;2023-11-21T07:38:28;14.90;;;4.75;;
35150;SDS011;55720;51.972;4.624;2023-11-21T07:40:53;15.10;;;4.07;;
35150;SDS011;55720;51.972;4.624;2023-11-21T07:43:18;10.17;;;3.63;;
35150;SDS011;55720;51.972;4.624;2023-11-21T07:45:44;15.52;;;4.07;;
35150;SDS011;55720;51.972;4.624;2023-11-21T07:48:09;13.15;;;4.50;;
35150;SDS011;55720;51.972;4.624;2023-11-21T07:50:35;17.40;;;4.50;;
35150;SDS011;55720;51.972;4.624;2023-11-21T07:53:00;17.53;;;4.47;;
35150;SDS011;55720;51.972;4.624;2023-11-21T07:55:25;14.27;;;4.97;;
35150;SDS011;55720;51.972;4.624;2023-11-21T07:57:51;8.48;;;4.00;;
35150;SDS011;55720;51.972;4.624;2023-11-21T08:00:16;15.52;;;4.25;;
35150;SDS011;55720;51.972;4.624;2023-11-21T08:02:42;13.73;;;4.43;;
35150;SDS011;55720;51.972;4.624;2023-11-21T08:05:10;10.55;;;3.95;;
35150;SDS011;55720;51.972;4.624;2023-11-21T08:07:36;12.32;;;4.75;;
35150;SDS011;55720;51.972;4.624;2023-11-21T08:10:01;10.13;;;4.50;;
35150;SDS011;55720;51.972;4.624;2023-11-21T08:12:26;12.95;;;4.93;;
35150;SDS011;55720;51.972;4.624;2023-11-21T08:14:52;15.32;;;5.60;;
35150;SDS011;55720;51.972;4.624;2023-11-21T08:17:18;11.23;;;4.82;;
35150;SDS011;55720;51.972;4.624;2023-11-21T08:19:45;17.45;;;6.20;;
35150;SDS011;55720;51.972;4.624;2023-11-21T08:22:14;14.23;;;6.60;;
35150;SDS011;55720;51.972;4.624;2023-11-21T08:24:41;17.17;;;6.05;;
35150;SDS011;55720;51.972;4.624;2023-11-21T08:27:06;12.57;;;5.22;;
35150;SDS011;55720;51.972;4.624;2023-11-21T08:29:31;13.90;;;5.05;;
35150;SDS011;55720;51.972;4.624;2023-11-21T08:31:57;17.80;;;5.63;;
35150;SDS011;55720;51.972;4.624;2023-11-21T08:34:22;13.95;;;5.60;;
35150;SDS011;55720;51.972;4.624;2023-11-21T08:36:47;15.13;;;5.63;;
35150;SDS011;55720;51.972;4.624;2023-11-21T08:39:12;15.07;;;5.80;;
35150;SDS011;55720;51.972;4.624;2023-11-21T08:41:38;14.50;;;5.82;;
35150;SDS011;55720;51.972;4.624;2023-11-21T08:44:03;20.70;;;6.88;;
35150;SDS011;55720;51.972;4.624;2023-11-21T08:46:32;17.17;;;5.70;;
35150;SDS011;55720;51.972;4.624;2023-11-21T08:48:58;17.30;;;6.30;;
35150;SDS011;55720;51.972;4.624;2023-11-21T08:51:23;17.57;;;6.10;;
35150;SDS011;55720;51.972;4.624;2023-11-21T08:53:49;17.35;;;5.80;;
35150;SDS011;55720;51.972;4.624;2023-11-21T08:56:15;22.80;;;6.70;;
35150;SDS011;55720;51.972;4.624;2023-11-21T08:58:40;11.65;;;5.82;;
35150;SDS011;55720;51.972;4.624;2023-11-21T09:01:06;17.15;;;6.22;;
35150;SDS011;55720;51.972;4.624;2023-11-21T09:03:32;12.35;;;6.15;;
35150;SDS011;55720;51.972;4.624;2023-11-21T09:05:58;25.17;;;6.47;;
35150;SDS011;55720;51.972;4.624;2023-11-21T09:08:24;17.67;;;7.03;;
35150;SDS011;55720;51.972;4.624;2023-11-21T09:10:49;19.37;;;6.60;;
35150;SDS011;55720;51.972;4.624;2023-11-21T09:13:15;15.53;;;6.87;;
35150;SDS011;55720;51.972;4.624;2023-11-21T09:15:41;15.82;;;6.88;;
35150;SDS011;55720;51.972;4.624;2023-11-21T09:18:07;16.38;;;6.75;;
35150;SDS011;55720;51.972;4.624;2023-11-21T09:20:32;14.27;;;7.10;;
35150;SDS011;55720;51.972;4.624;2023-11-21T09:22:57;18.98;;;7.95;;
35150;SDS011;55720;51.972;4.624;2023-11-21T09:25:22;16.70;;;7.90;;
35150;SDS011;55720;51.972;4.624;2023-11-21T09:27:48;19.10;;;8.15;;
35150;SDS011;55720;51.972;4.624;2023-11-21T09:30:13;29.20;;;7.80;;
35150;SDS011;55720;51.972;4.624;2023-11-21T09:32:39;18.33;;;7.55;;
35150;SDS011;55720;51.972;4.624;2023-11-21T09:35:05;12.95;;;6.28;;
35150;SDS011;55720;51.972;4.624;2023-11-21T09:37:33;22.48;;;6.63;;
35150;SDS011;55720;51.972;4.624;2023-11-21T09:39:58;20.10;;;6.70;;
35150;SDS011;55720;51.972;4.624;2023-11-21T09:42:25;13.23;;;5.57;;
35150;SDS011;55720;51.972;4.624;2023-11-21T09:45:08;9.75;;;4.95;;
35150;SDS011;55720;51.972;4.624;2023-11-21T09:47:35;15.20;;;5.20;;
35150;SDS011;55720;51.972;4.624;2023-11-21T09:50:03;14.23;;;5.68;;
35150;SDS011;55720;51.972;4.624;2023-11-21T09:52:29;13.20;;;4.80;;
35150;SDS011;55720;51.972;4.624;2023-11-21T09:54:57;14.18;;;5.18;;
35150;SDS011;55720;51.972;4.624;2023-11-21T09:57:23;10.10;;;4.05;;
35150;SDS011;55720;51.972;4.624;2023-11-21T09:59:52;11.98;;;4.07;;
35150;SDS011;55720;51.972;4.624;2023-11-21T10:02:24;12.02;;;4.35;;
35150;SDS011;55720;51.972;4.624;2023-11-21T10:04:51;8.90;;;4.35;;
35150;SDS011;55720;51.972;4.624;2023-11-21T10:07:17;7.90;;;4.40;;
35150;SDS011;55720;51.972;4.624;2023-11-21T10:09:42;8.00;;;4.38;;
35150;SDS011;55720;51.972;4.624;2023-11-21T10:12:08;9.32;;;4.80;;
35150;SDS011;55720;51.972;4.624;2023-11-21T10:14:35;9.38;;;4.70;;
35150;SDS011;55720;51.972;4.624;2023-11-21T10:17:02;12.30;;;4.72;;
35150;SDS011;55720;51.972;4.624;2023-11-21T10:19:27;14.45;;;5.22;;
35150;SDS011;55720;51.972;4.624;2023-11-21T10:21:53;9.15;;;4.25;;
35150;SDS011;55720;51.972;4.624;2023-11-21T10:24:19;10.02;;;4.90;;
35150;SDS011;55720;51.972;4.624;2023-11-21T10:26:44;9.63;;;4.85;;
35150;SDS011;55720;51.972;4.624;2023-11-21T10:29:13;10.68;;;5.03;;
35150;SDS011;55720;51.972;4.624;2023-11-21T10:31:41;8.93;;;5.15;;
35150;SDS011;55720;51.972;4.624;2023-11-21T10:36:38;9.13;;;4.70;;
35150;SDS011;55720;51.972;4.624;2023-11-21T10:39:03;10.73;;;4.93;;
35150;SDS011;55720;51.972;4.624;2023-11-21T10:41:28;8.23;;;4.55;;
35150;SDS011;55720;51.972;4.624;2023-11-21T10:43:53;8.77;;;5.13;;
35150;SDS011;55720;51.972;4.624;2023-11-21T10:46:20;11.05;;;4.97;;
35150;SDS011;55720;51.972;4.624;2023-11-21T10:48:46;8.82;;;4.78;;
35150;SDS011;55720;51.972;4.624;2023-11-21T10:51:16;7.90;;;4.93;;
35150;SDS011;55720;51.972;4.624;2023-11-21T10:53:44;6.88;;;4.50;;
35150;SDS011;55720;51.972;4.624;2023-11-21T10:56:10;7.68;;;4.93;;
35150;SDS011;55720;51.972;4.624;2023-11-21T10:58:42;8.05;;;4.35;;
35150;SDS011;55720;51.972;4.624;2023-11-21T11:01:08;8.95;;;5.10;;
35150;SDS011;55720;51.972;4.624;2023-11-21T11:03:36;9.20;;;4.57;;
35150;SDS011;55720;51.972;4.624;2023-11-21T11:06:03;9.38;;;5.40;;
35150;SDS011;55720;51.972;4.624;2023-11-21T11:08:29;14.48;;;6.07;;
35150;SDS011;55720;51.972;4.624;2023-11-21T11:10:55;11.38;;;5.90;;
35150;SDS011;55720;51.972;4.624;2023-11-21T11:13:20;10.45;;;5.65;;
35150;SDS011;55720;51.972;4.624;2023-11-21T11:15:49;11.80;;;6.20;;
35150;SDS011;55720;51.972;4.624;2023-11-21T11:18:15;11.75;;;6.20;;
35150;SDS011;55720;51.972;4.624;2023-11-21T11:20:40;17.45;;;7.18;;
35150;SDS011;55720;51.972;4.624;2023-11-21T11:28:07;12.13;;;6.30;;
35150;SDS011;55720;51.972;4.624;2023-11-21T11:35:43;7.68;;;4.70;;
35150;SDS011;55720;51.972;4.624;2023-11-21T11:38:12;8.20;;;4.68;;
35150;SDS011;55720;51.972;4.624;2023-11-21T11:40:41;11.60;;;5.03;;
35150;SDS011;55720;51.972;4.624;2023-11-21T11:43:07;5.80;;;2.80;;
35150;SDS011;55720;51.972;4.624;2023-11-21T11:45:33;5.57;;;3.97;;
35150;SDS011;55720;51.972;4.624;2023-11-21T11:47:59;5.32;;;3.50;;
35150;SDS011;55720;51.972;4.624;2023-11-21T11:50:25;6.43;;;3.90;;
35150;SDS011;55720;51.972;4.624;2023-11-21T11:52:55;6.32;;;3.58;;
35150;SDS011;55720;51.972;4.624;2023-11-21T11:55:22;4.38;;;3.30;;
35150;SDS011;55720;51.972;4.624;2023-11-21T11:57:49;7.18;;;3.17;;
35150;SDS011;55720;51.972;4.624;2023-11-21T12:00:20;7.32;;;3.60;;
35150;SDS011;55720;51.972;4.624;2023-11-21T12:02:56;5.32;;;3.30;;
35150;SDS011;55720;51.972;4.624;2023-11-21T12:05:23;6.03;;;3.42;;
35150;SDS011;55720;51.972;4.624;2023-11-21T12:07:50;7.22;;;3.88;;
35150;SDS011;55720;51.972;4.624;2023-11-21T12:10:18;5.30;;;3.15;;
35150;SDS011;55720;51.972;4.624;2023-11-21T12:12:44;9.80;;;5.00;;
35150;SDS011;55720;51.972;4.624;2023-11-21T12:15:10;9.10;;;4.60;;
35150;SDS011;55720;51.972;4.624;2023-11-21T12:17:37;10.18;;;5.13;;
35150;SDS011;55720;51.972;4.624;2023-11-21T12:20:04;8.43;;;4.32;;
35150;SDS011;55720;51.972;4.624;2023-11-21T12:22:30;10.80;;;5.35;;
35150;SDS011;55720;51.972;4.624;2023-11-21T12:24:56;8.50;;;4.20;;
35150;SDS011;55720;51.972;4.624;2023-11-21T12:27:21;9.63;;;5.03;;
35150;SDS011;55720;51.972;4.624;2023-11-21T12:29:46;8.63;;;4.57;;
35150;SDS011;55720;51.972;4.624;2023-11-21T12:32:11;9.45;;;5.25;;
35150;SDS011;55720;51.972;4.624;2023-11-21T12:34:37;10.70;;;5.32;;
35150;SDS011;55720;51.972;4.624;2023-11-21T12:37:03;10.57;;;5.15;;
35150;SDS011;55720;51.972;4.624;2023-11-21T12:39:29;12.80;;;6.15;;
35150;SDS011;55720;51.972;4.624;2023-11-21T12:41:54;13.27;;;6.15;;
35150;SDS011;55720;51.972;4.624;2023-11-21T12:44:19;12.45;;;5.93;;
35150;SDS011;55720;51.972;4.624;2023-11-21T12:46:44;12.33;;;5.63;;
35150;SDS011;55720;51.972;4.624;2023-11-21T12:49:11;11.52;;;4.95;;
35150;SDS011;55720;51.972;4.624;2023-11-21T12:51:42;12.32;;;5.90;;
35150;SDS011;55720;51.972;4.624;2023-11-21T12:54:07;10.80;;;5.95;;
35150;SDS011;55720;51.972;4.624;2023-11-21T12:56:37;10.52;;;5.63;;
35150;SDS011;55720;51.972;4.624;2023-11-21T12:59:03;10.20;;;5.22;;
35150;SDS011;55720;51.972;4.624;2023-11-21T13:01:29;12.20;;;5.88;;
35150;SDS011;55720;51.972;4.624;2023-11-21T13:03:57;10.32;;;5.20;;
35150;SDS011;55720;51.972;4.624;2023-11-21T13:06:22;10.95;;;5.15;;
35150;SDS011;55720;51.972;4.624;2023-11-21T13:08:50;8.40;;;5.03;;
35150;SDS011;55720;51.972;4.624;2023-11-21T13:11:16;9.60;;;5.82;;
35150;SDS011;55720;51.972;4.624;2023-11-21T13:13:42;7.88;;;5.15;;
35150;SDS011;55720;51.972;4.624;2023-11-21T13:16:11;11.55;;;5.72;;
35150;SDS011;55720;51.972;4.624;2023-11-21T13:18:36;11.85;;;5.78;;
35150;SDS011;55720;51.972;4.624;2023-11-21T13:21:07;7.45;;;4.78;;
35150;SDS011;55720;51.972;4.624;2023-11-21T13:23:39;8.40;;;5.00;;
35150;SDS011;55720;51.972;4.624;2023-11-21T13:26:06;8.65;;;5.10;;
35150;SDS011;55720;51.972;4.624;2023-11-21T13:28:32;7.45;;;5.63;;
35150;SDS011;55720;51.972;4.624;2023-11-21T13:30:58;10.23;;;5.65;;
35150;SDS011;55720;51.972;4.624;2023-11-21T13:33:28;9.57;;;6.07;;
35150;SDS011;55720;51.972;4.624;2023-11-21T13:35:53;9.68;;;6.00;;
35150;SDS011;55720;51.972;4.624;2023-11-21T13:38:21;9.80;;;6.28;;
35150;SDS011;55720;51.972;4.624;2023-11-21T13:40:54;8.82;;;5.40;;
35150;SDS011;55720;51.972;4.624;2023-11-21T13:43:21;9.95;;;5.60;;
35150;SDS011;55720;51.972;4.624;2023-11-21T13:45:46;7.97;;;5.15;;
35150;SDS011;55720;51.972;4.624;2023-11-21T13:48:12;9.10;;;5.75;;
35150;SDS011;55720;51.972;4.624;2023-11-21T13:50:44;12.40;;;6.32;;
35150;SDS011;55720;51.972;4.624;2023-11-21T13:53:20;10.23;;;5.97;;
35150;SDS011;55720;51.972;4.624;2023-11-21T13:55:48;11.45;;;6.68;;
35150;SDS011;55720;51.972;4.624;2023-11-21T13:58:14;17.95;;;7.25;;
35150;SDS011;55720;51.972;4.624;2023-11-21T14:03:11;11.73;;;6.50;;
35150;SDS011;55720;51.972;4.624;2023-11-21T14:05:44;15.27;;;7.35;;
35150;SDS011;55720;51.972;4.624;2023-11-21T14:08:11;12.23;;;6.68;;
35150;SDS011;55720;51.972;4.624;2023-11-21T14:10:41;17.08;;;8.23;;
35150;SDS011;55720;51.972;4.624;2023-11-21T14:13:11;16.73;;;8.38;;
35150;SDS011;55720;51.972;4.624;2023-11-21T14:15:38;17.08;;;8.30;;
35150;SDS011;55720;51.972;4.624;2023-11-21T14:18:06;16.20;;;7.97;;
35150;SDS011;55720;51.972;4.624;2023-11-21T14:20:35;16.42;;;8.88;;
35150;SDS011;55720;51.972;4.624;2023-11-21T14:23:02;16.02;;;8.32;;
35150;SDS011;55720;51.972;4.624;2023-11-21T14:25:27;17.83;;;8.30;;
35150;SDS011;55720;51.972;4.624;2023-11-21T14:27:53;19.67;;;8.30;;
35150;SDS011;55720;51.972;4.624;2023-11-21T14:30:18;15.18;;;8.15;;
35150;SDS011;55720;51.972;4.624;2023-11-21T14:32:46;13.35;;;7.68;;
35150;SDS011;55720;51.972;4.624;2023-11-21T14:35:11;14.33;;;7.23;;
35150;SDS011;55720;51.972;4.624;2023-11-21T14:37:36;18.40;;;7.35;;
35150;SDS011;55720;51.972;4.624;2023-11-21T14:40:02;16.95;;;7.72;;
35150;SDS011;55720;51.972;4.624;2023-11-21T14:42:30;12.73;;;6.97;;
35150;SDS011;55720;51.972;4.624;2023-11-21T14:44:56;16.20;;;8.00;;